Time;durP1;ratioP1;P1;durP2;ratioP2;P2;SDS_P1;SDS_P2;PMS_P1;PMS_P2;Temp;Humidity;BMP_temperature;BMP_pressure;BME280_temperature;BME280_humidity;BME280_pressure;Samples;Min_cycle;Max_cycle;Signal;HPM_P1;HPM_P2
2024/04/23 00:02:17;;;;;;;;;;;;;;;15.82;52.70;101197.72;5281915;27;1097;-50
2024/04/23 00:04:43;;;;;;;;;;;;;;;15.70;52.78;101195.84;5282250;27;1363;-54
2024/04/23 00:07:09;;;;;;;;;;;;;;;16.13;52.63;101200.28;5281829;27;1165;-51
2024/04/23 00:09:34;;;;;;;;;;;;;;;17.47;49.71;101199.47;5281917;27;1241;-52
2024/04/23 00:12:00;;;;;;;;;;;;;;;17.19;50.29;101204.03;5286345;27;2326;-54
2024/04/23 00:14:25;;;;;;;;;;;;;;;16.49;51.87;101196.19;5281933;27;1837;-51
2024/04/23 00:16:58;;;;;;;;;;;;;;;16.23;52.29;101188.09;5304683;27;1173;-52
2024/04/23 00:19:23;;;;;;;;;;;;;;;16.06;52.45;101191.88;5280260;27;1264;-54
2024/04/23 00:21:49;;;;;;;;;;;;;;;15.87;52.69;101194.78;5295938;27;1137;-53
2024/04/23 00:24:15;;;;;;;;;;;;;;;16.09;52.91;101180.19;5281894;27;1150;-53
2024/04/23 00:26:40;;;;;;;;;;;;;;;17.54;50.07;101189.25;5311188;27;1126;-54
2024/04/23 00:29:06;;;;;;;;;;;;;;;16.91;51.32;101181.97;5297138;27;1347;-53
2024/04/23 00:31:32;;;;;;;;;;;;;;;16.45;51.84;101178.75;5310095;26;1538;-51
2024/04/23 00:33:58;;;;;;;;;;;;;;;16.14;52.44;101176.31;5297140;27;1220;-51
2024/04/23 00:36:23;;;;;;;;;;;;;;;15.97;52.88;101160.56;5304368;27;1860;-53
2024/04/23 00:38:49;;;;;;;;;;;;;;;15.81;52.90;101169.50;5281763;27;1233;-52
2024/04/23 00:41:14;;;;;;;;;;;;;;;15.98;53.22;101179.06;5309915;27;2356;-53
2024/04/23 00:43:40;;;;;;;;;;;;;;;17.43;50.38;101176.72;5281469;27;1130;-52
2024/04/23 00:46:06;;;;;;;;;;;;;;;17.25;50.23;101171.69;5281378;27;1224;-53
2024/04/23 00:48:32;;;;;;;;;;;;;;;16.60;51.44;101176.06;5251806;27;1276;-53
2024/04/23 00:50:57;;;;;;;;;;;;;;;16.26;52.36;101182.63;5280814;27;1220;-55
2024/04/23 00:53:23;;;;;;;;;;;;;;;16.09;52.60;101185.50;5269563;27;1663;-52
2024/04/23 00:55:48;;;;;;;;;;;;;;;15.87;52.76;101182.38;5291678;27;1841;-51
2024/04/23 00:58:14;;;;;;;;;;;;;;;15.81;52.76;101181.91;5285529;27;1221;-53
2024/04/23 01:00:40;;;;;;;;;;;;;;;16.66;52.12;101186.25;5292053;27;1125;-53
2024/04/23 01:03:05;;;;;;;;;;;;;;;17.71;49.40;101200.50;5315163;27;1161;-54
2024/04/23 01:05:31;;;;;;;;;;;;;;;16.78;51.31;101197.88;5315056;27;1267;-54
2024/04/23 01:07:56;;;;;;;;;;;;;;;16.37;52.18;101186.38;5297024;27;1117;-52
2024/04/23 01:10:22;;;;;;;;;;;;;;;16.11;52.75;101175.66;5252251;27;1186;-51
2024/04/23 01:12:47;;;;;;;;;;;;;;;15.94;52.71;101174.03;5268274;27;2475;-52
2024/04/23 01:15:13;;;;;;;;;;;;;;;15.78;52.88;101182.97;5277681;27;1838;-51
2024/04/23 01:17:39;;;;;;;;;;;;;;;16.95;51.36;101175.47;5251102;27;1259;-51
2024/04/23 01:20:11;;;;;;;;;;;;;;;17.26;50.09;101177.88;5251057;27;1113;-51
2024/04/23 01:22:45;;;;;;;;;;;;;;;16.52;51.94;101164.13;5277882;27;1287;-52
2024/04/23 01:25:12;;;;;;;;;;;;;;;16.18;52.51;101162.84;5314479;27;1271;-51
2024/04/23 01:27:38;;;;;;;;;;;;;;;15.97;52.87;101142.84;5293607;27;1278;-51
2024/04/23 01:30:04;;;;;;;;;;;;;;;15.81;52.86;101135.03;5285041;27;1305;-52
2024/04/23 01:32:29;;;;;;;;;;;;;;;16.62;52.20;101136.94;5317384;26;1507;-53
2024/04/23 01:34:55;;;;;;;;;;;;;;;17.47;49.62;101154.25;5308178;27;1833;-50
2024/04/23 01:37:24;;;;;;;;;;;;;;;16.55;51.74;101148.94;5274392;27;1283;-51
2024/04/23 01:39:50;;;;;;;;;;;;;;;16.19;52.45;101148.59;5281733;27;1278;-54
2024/04/23 01:42:16;;;;;;;;;;;;;;;16.02;52.79;101131.97;5274197;27;2280;-52
2024/04/23 01:44:41;;;;;;;;;;;;;;;15.87;52.80;101121.38;5317813;27;1539;-50
2024/04/23 01:47:07;;;;;;;;;;;;;;;16.74;51.76;101128.16;5317799;27;1300;-54
2024/04/23 01:49:32;;;;;;;;;;;;;;;17.46;50.06;101125.97;5317006;27;1147;-49
2024/04/23 01:51:58;;;;;;;;;;;;;;;16.60;51.79;101126.41;5287002;27;1228;-53
2024/04/23 01:54:23;;;;;;;;;;;;;;;16.19;52.59;101114.94;5294041;27;1879;-49
2024/04/23 01:56:49;;;;;;;;;;;;;;;16.01;52.71;101117.88;5296698;27;1397;-47
2024/04/23 01:59:15;;;;;;;;;;;;;;;15.90;52.88;101122.94;5253961;27;1170;-45
2024/04/23 02:01:42;;;;;;;;;;;;;;;17.08;51.44;101113.50;5306056;27;1244;-49
2024/04/23 02:04:07;;;;;;;;;;;;;;;17.24;50.07;101121.28;5271055;27;1160;-50
2024/04/23 02:06:33;;;;;;;;;;;;;;;16.54;51.93;101124.19;5307613;27;2691;-46
2024/04/23 02:08:59;;;;;;;;;;;;;;;16.20;52.45;101113.97;5299726;27;2128;-48
2024/04/23 02:11:25;;;;;;;;;;;;;;;16.06;52.68;101103.44;5311891;27;1324;-47
2024/04/23 02:13:51;;;;;;;;;;;;;;;15.92;52.82;101107.78;5253908;27;1272;-49
2024/04/23 02:16:17;;;;;;;;;;;;;;;16.77;52.04;101109.34;5289270;27;1833;-49
2024/04/23 02:18:42;;;;;;;;;;;;;;;17.44;49.93;101113.72;5314682;27;1679;-49
2024/04/23 02:21:08;;;;;;;;;;;;;;;16.63;51.48;101106.78;5288690;27;1311;-50
2024/04/23 02:23:33;;;;;;;;;;;;;;;16.26;52.55;101102.13;5308159;27;1118;-50
2024/04/23 02:25:59;;;;;;;;;;;;;;;16.01;52.96;101107.25;5317079;27;1339;-44
2024/04/23 02:28:24;;;;;;;;;;;;;;;15.91;52.82;101103.44;5295021;27;1415;-48
2024/04/23 02:30:50;;;;;;;;;;;;;;;15.79;52.81;101107.75;5296721;27;1266;-48
2024/04/23 02:33:16;;;;;;;;;;;;;;;16.09;53.16;101104.09;5314381;27;1520;-48
2024/04/23 02:35:41;;;;;;;;;;;;;;;17.54;50.37;101113.91;5296696;27;1900;-47
2024/04/23 02:38:07;;;;;;;;;;;;;;;17.08;50.71;101106.38;5291709;27;1383;-47
2024/04/23 02:40:32;;;;;;;;;;;;;;;16.50;52.08;101114.69;5297729;27;1224;-49
2024/04/23 02:42:58;;;;;;;;;;;;;;;16.16;52.48;101125.78;5304368;27;1146;-48
2024/04/23 02:45:23;;;;;;;;;;;;;;;16.02;52.69;101131.97;5283275;27;1228;-48
2024/04/23 02:47:49;;;;;;;;;;;;;;;15.87;53.08;101133.75;5282990;27;1448;-48
2024/04/23 02:50:14;;;;;;;;;;;;;;;17.31;50.55;101133.22;5283043;27;1249;-48
2024/04/23 02:52:40;;;;;;;;;;;;;;;17.04;50.82;101131.47;5313117;27;1259;-49
2024/04/23 02:55:06;;;;;;;;;;;;;;;16.50;51.95;101133.28;5317095;27;1841;-49
2024/04/23 02:57:31;;;;;;;;;;;;;;;16.17;52.60;101132.78;5317068;27;1240;-50
2024/04/23 02:59:57;;;;;;;;;;;;;;;15.96;52.98;101132.34;5298709;27;1243;-48
2024/04/23 03:02:22;;;;;;;;;;;;;;;15.86;52.94;101113.50;5285005;27;1513;-48
2024/04/23 03:04:48;;;;;;;;;;;;;;;15.79;52.88;101124.50;5300882;27;1166;-46
2024/04/23 03:07:13;;;;;;;;;;;;;;;16.00;53.09;101128.53;5316384;27;1267;-48
2024/04/23 03:09:39;;;;;;;;;;;;;;;17.42;50.64;101129.78;5299248;27;888;-47
2024/04/23 03:12:05;;;;;;;;;;;;;;;17.24;50.30;101118.63;5282868;27;1193;-46
2024/04/23 03:14:30;;;;;;;;;;;;;;;16.49;52.24;101119.19;5299443;27;1877;-49
2024/04/23 03:16:56;;;;;;;;;;;;;;;16.19;52.78;101124.72;5316296;27;1161;-50
2024/04/23 03:19:22;;;;;;;;;;;;;;;16.02;53.01;101118.69;5317071;27;1355;-48
2024/04/23 03:21:48;;;;;;;;;;;;;;;16.27;53.16;101112.66;5309839;27;1249;-48
2024/04/23 03:24:14;;;;;;;;;;;;;;;17.54;50.35;101122.75;5282504;27;1212;-45
2024/04/23 03:26:40;;;;;;;;;;;;;;;16.70;51.84;101125.81;5311657;27;1213;-50
2024/04/23 03:29:05;;;;;;;;;;;;;;;16.28;52.50;101130.25;5300105;27;1290;-44
2024/04/23 03:31:31;;;;;;;;;;;;;;;16.10;53.01;101127.00;5301930;27;1531;-46
2024/04/23 03:33:56;;;;;;;;;;;;;;;15.96;53.00;101127.88;5300109;27;1521;-44
2024/04/23 03:36:22;;;;;;;;;;;;;;;15.85;52.88;101128.56;5303953;27;1826;-48
2024/04/23 03:38:47;;;;;;;;;;;;;;;16.37;52.94;101144.75;5282489;27;1188;-52
2024/04/23 03:41:13;;;;;;;;;;;;;;;17.60;50.17;101150.75;5288890;27;1205;-50
2024/04/23 03:43:38;;;;;;;;;;;;;;;16.77;51.79;101162.50;5287026;27;2405;-52
2024/04/23 03:46:04;;;;;;;;;;;;;;;16.30;52.69;101159.38;5306282;27;1126;-45
2024/04/23 03:48:29;;;;;;;;;;;;;;;16.04;53.13;101177.84;5310248;27;2313;-50
2024/04/23 03:50:55;;;;;;;;;;;;;;;15.97;53.04;101197.72;5286422;27;2302;-51
2024/04/23 03:53:21;;;;;;;;;;;;;;;16.36;53.49;101200.59;5309031;27;2385;-47
2024/04/23 03:55:46;;;;;;;;;;;;;;;17.70;50.22;101190.84;5298708;27;2128;-53
2024/04/23 03:58:12;;;;;;;;;;;;;;;16.85;51.76;101206.31;5304024;27;1537;-49
2024/04/23 04:00:37;;;;;;;;;;;;;;;16.38;52.64;101218.13;5291315;27;1561;-48
2024/04/23 04:06:08;;;;;;;;;;;;;;;17.11;51.47;101248.91;5300153;27;1212;-49
2024/04/23 04:08:34;;;;;;;;;;;;;;;15.70;52.73;101248.91;5280367;27;1156;-48
2024/04/23 04:11:00;;;;;;;;;;;;;;;15.47;51.53;101238.75;5279064;27;1026;-49
2024/04/23 04:13:25;;;;;;;;;;;;;;;15.33;50.71;101244.84;5288420;27;1227;-49
2024/04/23 04:15:51;;;;;;;;;;;;;;;15.15;50.08;101238.84;5307084;27;1831;-51
2024/04/23 04:18:17;;;;;;;;;;;;;;;15.06;49.57;101222.56;5306787;27;1239;-51
2024/04/23 04:20:42;;;;;;;;;;;;;;;16.21;51.94;101191.81;5281003;27;1272;-49
2024/04/23 04:23:08;;;;;;;;;;;;;;;15.46;51.80;101207.88;5254610;27;1129;-51
2024/04/23 04:25:34;;;;;;;;;;;;;;;15.20;50.47;101197.03;5278565;27;3116;-49
2024/04/23 04:27:59;;;;;;;;;;;;;;;15.32;51.04;101194.59;5308754;27;1248;-49
2024/04/23 04:30:25;;;;;;;;;;;;;;;15.79;51.46;101182.88;5295588;27;1217;-48
2024/04/23 04:32:51;;;;;;;;;;;;;;;15.37;50.79;101180.13;5281304;27;1165;-51
2024/04/23 04:35:16;;;;;;;;;;;;;;;15.17;49.93;101186.63;5283015;27;1861;-50
2024/04/23 04:37:42;;;;;;;;;;;;;;;15.11;49.16;101181.69;5280344;27;1224;-47
2024/04/23 04:40:07;;;;;;;;;;;;;;;16.12;50.79;101185.28;5303983;27;1701;-48
2024/04/23 04:42:33;;;;;;;;;;;;;;;15.41;50.88;101191.41;5304244;27;1739;-49
2024/04/23 04:44:58;;;;;;;;;;;;;;;15.18;49.90;101175.09;5308057;27;1866;-50
2024/04/23 04:47:24;;;;;;;;;;;;;;;15.85;50.69;101189.56;5301573;27;1497;-47
2024/04/23 04:49:50;;;;;;;;;;;;;;;15.36;50.47;101178.44;5305952;27;1361;-50
2024/04/23 04:52:15;;;;;;;;;;;;;;;15.16;49.50;101185.75;5269751;27;1208;-48
2024/04/23 04:54:41;;;;;;;;;;;;;;;15.05;49.14;101170.53;5306596;27;2764;-47
2024/04/23 04:57:06;;;;;;;;;;;;;;;15.96;50.01;101172.13;5314216;27;1077;-51
2024/04/23 04:59:32;;;;;;;;;;;;;;;15.24;50.07;101182.66;5314057;27;1125;-51
2024/04/23 05:01:57;;;;;;;;;;;;;;;15.09;49.55;101180.94;5280661;27;1259;-51
2024/04/23 05:04:23;;;;;;;;;;;;;;;16.31;50.65;101173.50;5276521;27;1386;-51
2024/04/23 05:06:49;;;;;;;;;;;;;;;15.52;50.55;101169.50;5295109;27;1290;-47
2024/04/23 05:09:14;;;;;;;;;;;;;;;15.22;49.86;101178.41;5295562;27;1130;-50
2024/04/23 05:11:41;;;;;;;;;;;;;;;15.12;48.90;101173.66;5301840;27;1125;-50
2024/04/23 05:14:07;;;;;;;;;;;;;;;15.03;48.25;101168.91;5317656;27;1145;-49
2024/04/23 05:16:33;;;;;;;;;;;;;;;15.12;48.89;101160.41;5292380;27;1821;-50
2024/04/23 05:18:58;;;;;;;;;;;;;;;16.42;49.88;101152.41;5309837;27;1148;-50
2024/04/23 05:21:24;;;;;;;;;;;;;;;15.51;50.41;101142.16;5287254;27;1209;-52
2024/04/23 05:23:49;;;;;;;;;;;;;;;15.16;49.83;101131.94;5269927;27;1201;-52
2024/04/23 05:26:15;;;;;;;;;;;;;;;15.01;49.26;101136.34;5312280;27;2823;-52
2024/04/23 05:28:40;;;;;;;;;;;;;;;15.93;49.95;101133.41;5308229;27;1684;-49
2024/04/23 05:33:50;;;;;;;;;;;;;;;15.06;49.01;101136.94;5309682;27;1293;-52
2024/04/23 05:36:18;;;;;;;;;;;;;;;15.03;48.18;101153.84;5314488;27;1824;-53
2024/04/23 05:38:43;;;;;;;;;;;;;;;14.93;48.22;101153.56;5301675;27;1461;-51
2024/04/23 05:41:09;;;;;;;;;;;;;;;16.19;49.23;101160.06;5293669;27;1543;-49
2024/04/23 05:43:34;;;;;;;;;;;;;;;15.37;49.64;101145.66;5286615;27;1248;-50
2024/04/23 05:46:00;;;;;;;;;;;;;;;15.16;49.20;101161.91;5312814;27;1307;-52
2024/04/23 05:48:44;;;;;;;;;;;;;;;14.99;48.49;101159.44;5318041;27;1394;-52
2024/04/23 05:51:47;;;;;;;;;;;;;;;16.19;49.24;101157.41;5301964;27;1298;-51
2024/04/23 05:54:50;;;;;;;;;;;;;;;15.16;49.80;101153.97;5295375;27;2696;-50
2024/04/23 05:57:34;;;;;;;;;;;;;;;16.42;49.49;101157.72;5293276;27;1333;-51
2024/04/23 06:00:00;;;;;;;;;;;;;;;15.59;50.25;101156.72;5319709;27;1268;-51
2024/04/23 06:02:25;;;;;;;;;;;;;;;15.26;49.75;101150.78;5302814;27;1466;-45
2024/04/23 06:04:51;;;;;;;;;;;;;;;16.18;49.93;101153.06;5309916;27;1392;-55
2024/04/23 06:07:17;;;;;;;;;;;;;;;15.50;49.83;101163.44;5301624;27;1351;-54
2024/04/23 06:09:43;;;;;;;;;;;;;;;15.28;48.99;101172.75;5320963;27;1140;-49
2024/04/23 06:12:08;;;;;;;;;;;;;;;15.37;49.69;101184.56;5310523;27;1379;-53
2024/04/23 06:14:40;;;;;;;;;;;;;;;15.64;50.01;101190.00;5313156;27;1868;-51
2024/04/23 06:17:22;;;;;;;;;;;;;;;15.33;49.16;101198.97;5291557;27;1179;-50
2024/04/23 06:19:50;;;;;;;;;;;;;;;15.15;48.53;101201.75;5285858;27;1398;-50
2024/04/23 06:22:25;;;;;;;;;;;;;;;14.98;47.99;101187.72;5284252;27;1114;-49
2024/04/23 06:24:52;;;;;;;;;;;;;;;15.22;48.34;101189.84;5299307;27;2788;-52
2024/04/23 06:27:21;;;;;;;;;;;;;;;15.78;49.36;101178.50;5305289;27;1291;-48
2024/04/23 06:29:47;;;;;;;;;;;;;;;15.34;48.85;101163.53;5302292;27;1675;-49
2024/04/23 06:32:13;;;;;;;;;;;;;;;15.02;48.67;101164.53;5306003;27;1560;-48
2024/04/23 06:34:39;;;;;;;;;;;;;;;15.05;47.84;101170.53;5304181;27;1826;-48
2024/04/23 06:37:05;;;;;;;;;;;;;;;14.91;47.79;101181.94;5294791;27;1426;-50
2024/04/23 06:39:30;;;;;;;;;;;;;;;15.68;49.05;101177.41;5307645;27;1375;-48
2024/04/23 06:41:56;;;;;;;;;;;;;;;15.22;48.83;101191.66;5308604;26;1655;-50
2024/04/23 06:44:22;;;;;;;;;;;;;;;14.95;48.65;101195.00;5312347;27;1342;-48
2024/04/23 06:46:47;;;;;;;;;;;;;;;14.90;47.92;101206.72;5312002;27;1520;-52
2024/04/23 06:49:13;;;;;;;;;;;;;;;15.76;48.87;101198.97;5311473;27;1528;-51
2024/04/23 06:51:38;;;;;;;;;;;;;;;15.12;49.17;101189.56;5307282;27;1509;-52
2024/04/23 06:54:04;;;;;;;;;;;;;;;15.01;48.53;101184.06;5305747;27;1310;-48
2024/04/23 06:56:30;;;;;;;;;;;;;;;15.75;48.97;101176.03;5308057;27;3076;-51
2024/04/23 06:58:55;;;;;;;;;;;;;;;15.21;49.46;101171.41;5313552;27;1396;-50
2024/04/23 07:01:21;;;;;;;;;;;;;;;15.14;48.42;101157.66;5298743;27;1285;-46
2024/04/23 07:03:46;;;;;;;;;;;;;;;14.98;47.85;101173.63;5293658;27;1741;-50
2024/04/23 07:06:12;;;;;;;;;;;;;;;14.96;47.95;101171.06;5305360;27;1319;-49
2024/04/23 07:08:37;;;;;;;;;;;;;;;15.64;48.93;101173.22;5312523;27;1286;-52
2024/04/23 07:11:03;;;;;;;;;;;;;;;15.17;48.64;101176.03;5312279;27;1131;-48
2024/04/23 07:13:29;;;;;;;;;;;;;;;15.07;48.18;101196.91;5303250;27;1414;-49
2024/04/23 07:15:54;;;;;;;;;;;;;;;14.83;47.66;101201.88;5257716;27;1834;-49
2024/04/23 07:18:20;;;;;;;;;;;;;;;14.81;47.37;101197.50;5291780;27;1396;-49
2024/04/23 07:20:45;;;;;;;;;;;;;;;15.89;48.28;101199.06;5298326;27;1461;-52
2024/04/23 07:23:11;;;;;;;;;;;;;;;15.20;48.71;101193.56;5281324;27;1137;-49
2024/04/23 07:25:37;;;;;;;;;;;;;;;14.90;48.35;101184.66;5281536;27;2865;-53
2024/04/23 07:28:02;;;;;;;;;;;;;;;16.48;48.83;101185.69;5288030;27;1272;-52
2024/04/23 07:30:28;;;;;;;;;;;;;;;15.41;49.73;101178.97;5303020;27;1570;-54
2024/04/23 07:32:56;;;;;;;;;;;;;;;15.22;48.61;101170.44;5302996;27;1360;-51
2024/04/23 07:35:22;;;;;;;;;;;;;;;15.01;47.96;101139.88;5295168;27;1861;-55
2024/04/23 07:37:48;;;;;;;;;;;;;;;14.97;47.64;101125.09;5287579;27;1232;-49
2024/04/23 07:40:13;;;;;;;;;;;;;;;14.89;47.15;101107.00;5303164;27;1326;-57
2024/04/23 07:42:39;;;;;;;;;;;;;;;14.74;47.36;101103.44;5295719;26;1308;-52
2024/04/23 07:45:05;;;;;;;;;;;;;;;15.42;48.56;101098.50;5308331;27;1224;-54
2024/04/23 07:47:30;;;;;;;;;;;;;;;15.50;49.28;101105.13;5297410;27;1323;-53
2024/04/23 07:49:56;;;;;;;;;;;;;;;15.02;49.16;101090.34;5281157;27;1284;-53
2024/04/23 07:52:21;;;;;;;;;;;;;;;15.33;49.45;101101.72;5289082;27;1126;-53
2024/04/23 07:54:50;;;;;;;;;;;;;;;15.92;49.50;101102.50;5299695;27;2715;-54
2024/04/23 07:57:16;;;;;;;;;;;;;;;15.22;49.85;101098.88;5299428;27;1237;-50
2024/04/23 07:59:42;;;;;;;;;;;;;;;15.06;49.15;101121.88;5308582;27;1284;-52
2024/04/23 08:02:07;;;;;;;;;;;;;;;15.98;49.53;101125.13;5281476;27;1137;-51
2024/04/23 08:04:33;;;;;;;;;;;;;;;15.34;49.55;101135.25;5299694;27;1228;-55
2024/04/23 08:06:59;;;;;;;;;;;;;;;15.13;48.72;101145.38;5281559;27;1279;-52
2024/04/23 08:09:24;;;;;;;;;;;;;;;14.94;47.97;101141.16;5310741;27;1311;-52
2024/04/23 08:11:50;;;;;;;;;;;;;;;14.90;47.70;101134.34;5315170;27;1157;-53
2024/04/23 08:14:15;;;;;;;;;;;;;;;16.09;48.66;101122.66;5292381;27;1190;-54
2024/04/23 08:16:41;;;;;;;;;;;;;;;15.38;49.15;101125.31;5306782;27;1837;-54
2024/04/23 08:19:07;;;;;;;;;;;;;;;15.20;49.23;101117.53;5306575;27;1193;-51
2024/04/23 08:21:32;;;;;;;;;;;;;;;16.11;49.12;101111.94;5291043;27;1564;-52
2024/04/23 08:23:58;;;;;;;;;;;;;;;15.38;49.57;101094.34;5298643;27;1314;-51
2024/04/23 08:26:23;;;;;;;;;;;;;;;15.16;48.60;101097.47;5296943;27;2936;-50
2024/04/23 08:28:52;;;;;;;;;;;;;;;16.14;49.93;101087.84;5299033;27;1069;-51
2024/04/23 08:31:19;;;;;;;;;;;;;;;15.57;49.52;101079.06;5304911;27;1133;-52
2024/04/23 08:33:44;;;;;;;;;;;;;;;15.32;48.97;101054.09;5313822;27;1620;-52
2024/04/23 08:36:10;;;;;;;;;;;;;;;15.07;48.40;101043.25;5304172;27;1865;-54
2024/04/23 08:38:36;;;;;;;;;;;;;;;15.03;47.92;101037.28;5309717;27;1428;-50
2024/04/23 08:41:03;;;;;;;;;;;;;;;14.90;47.55;101061.03;5299708;27;1289;-49
2024/04/23 08:43:33;;;;;;;;;;;;;;;15.59;48.58;101055.97;5312440;27;1399;-52
2024/04/23 08:45:58;;;;;;;;;;;;;;;15.52;49.35;101066.09;5305386;27;1223;-52
2024/04/23 08:48:24;;;;;;;;;;;;;;;15.17;48.73;101067.38;5304245;27;1408;-54
2024/04/23 08:50:49;;;;;;;;;;;;;;;15.05;48.14;101071.63;5272742;27;1296;-51
2024/04/23 08:53:15;;;;;;;;;;;;;;;14.96;47.37;101066.91;5303624;27;1819;-52
2024/04/23 08:55:44;;;;;;;;;;;;;;;16.20;48.92;101066.22;5309554;27;2816;-55
2024/04/23 08:58:11;;;;;;;;;;;;;;;15.40;48.99;101057.97;5303466;27;1204;-53
2024/04/23 09:00:38;;;;;;;;;;;;;;;16.23;49.59;101075.78;5301553;27;1299;-52
2024/04/23 09:03:04;;;;;;;;;;;;;;;16.28;49.80;101092.25;5262555;27;1799;-52
2024/04/23 09:05:30;;;;;;;;;;;;;;;15.51;50.10;101106.84;5266816;27;1114;-52
2024/04/23 09:07:55;;;;;;;;;;;;;;;15.32;49.02;101121.22;5312876;27;1153;-54
2024/04/23 09:10:21;;;;;;;;;;;;;;;15.20;48.37;101130.78;5293452;27;1062;-55
2024/04/23 09:12:48;;;;;;;;;;;;;;;15.02;47.79;101132.75;5312949;27;1285;-51
2024/04/23 09:15:14;;;;;;;;;;;;;;;14.97;47.32;101140.13;5314222;27;1874;-52
2024/04/23 09:17:39;;;;;;;;;;;;;;;14.93;46.90;101131.53;5305761;27;1215;-51
2024/04/23 09:20:05;;;;;;;;;;;;;;;15.22;47.88;101135.97;5297918;27;1248;-52
2024/04/23 09:22:31;;;;;;;;;;;;;;;15.57;49.33;101140.06;5280065;27;1672;-50
2024/04/23 09:25:00;;;;;;;;;;;;;;;15.17;49.04;101125.66;5304158;27;2816;-52
2024/04/23 09:27:25;;;;;;;;;;;;;;;14.97;48.22;101135.69;5301339;27;1298;-52
2024/04/23 09:29:54;;;;;;;;;;;;;;;14.93;47.54;101128.88;5303006;27;1338;-51
2024/04/23 09:32:19;;;;;;;;;;;;;;;15.67;48.53;101130.59;5314028;27;1268;-52
2024/04/23 09:34:52;;;;;;;;;;;;;;;15.52;49.17;101124.44;5262320;27;1823;-52
2024/04/23 09:37:18;;;;;;;;;;;;;;;15.15;48.94;101132.84;5305727;27;1346;-55
2024/04/23 09:39:44;;;;;;;;;;;;;;;15.56;49.56;101120.66;5282805;27;1287;-48
2024/04/23 09:42:09;;;;;;;;;;;;;;;15.49;49.34;101121.97;5285264;27;1479;-50
2024/04/23 09:44:35;;;;;;;;;;;;;;;15.05;48.91;101114.00;5291275;27;1280;-48
2024/04/23 09:47:02;;;;;;;;;;;;;;;14.96;47.99;101112.78;5301835;27;1279;-48
2024/04/23 09:49:28;;;;;;;;;;;;;;;16.20;48.93;101105.19;5297176;27;1557;-49
2024/04/23 09:51:53;;;;;;;;;;;;;;;15.50;49.52;101105.97;5297484;27;1332;-48
2024/04/23 09:54:22;;;;;;;;;;;;;;;15.27;48.61;101089.72;5285498;27;2781;-53
2024/04/23 09:56:47;;;;;;;;;;;;;;;15.37;49.51;101089.13;5296857;27;1926;-52
2024/04/23 09:59:15;;;;;;;;;;;;;;;15.76;49.65;101079.63;5298479;27;1080;-52
2024/04/23 10:01:42;;;;;;;;;;;;;;;15.29;49.20;101068.41;5289616;27;1229;-50
2024/04/23 10:04:07;;;;;;;;;;;;;;;15.11;48.70;101055.38;5316793;27;1117;-50
2024/04/23 10:06:35;;;;;;;;;;;;;;;14.98;47.71;101062.38;5262555;27;1280;-47
2024/04/23 10:09:00;;;;;;;;;;;;;;;14.92;47.23;101048.53;5285721;27;1311;-46
2024/04/23 10:11:30;;;;;;;;;;;;;;;15.77;48.88;101040.66;5315896;27;1185;-48
2024/04/23 10:14:02;;;;;;;;;;;;;;;15.45;49.31;101047.09;5285273;27;1272;-51
2024/04/23 10:16:42;;;;;;;;;;;;;;;15.14;48.56;101039.28;5275058;27;1867;-52
2024/04/23 10:19:11;;;;;;;;;;;;;;;14.93;47.82;101029.03;5275215;27;1243;-50
2024/04/23 10:21:39;;;;;;;;;;;;;;;15.92;48.76;101030.84;5289594;27;1216;-48
2024/04/23 10:24:07;;;;;;;;;;;;;;;15.48;49.11;101032.78;5282962;27;1237;-52
2024/04/23 10:26:44;;;;;;;;;;;;;;;15.06;48.43;101012.41;5269500;27;1368;-49
2024/04/23 10:29:10;;;;;;;;;;;;;;;15.93;49.24;101003.38;5311148;27;1715;-46
2024/04/23 10:31:36;;;;;;;;;;;;;;;15.30;49.25;101011.78;5293006;27;1217;-50
2024/04/23 10:34:02;;;;;;;;;;;;;;;15.11;48.62;101002.38;5302882;27;1533;-49
2024/04/23 10:36:29;;;;;;;;;;;;;;;14.92;48.18;100992.06;5312580;27;1846;-48
2024/04/23 10:39:01;;;;;;;;;;;;;;;14.81;47.15;100995.38;5304551;27;1856;-49
2024/04/23 10:41:28;;;;;;;;;;;;;;;16.38;48.94;100988.94;5309051;26;1533;-47
2024/04/23 10:43:53;;;;;;;;;;;;;;;15.38;49.68;100977.69;5267110;27;1529;-51
2024/04/23 10:46:19;;;;;;;;;;;;;;;15.02;49.17;100950.81;5303898;27;1462;-47
2024/04/23 10:48:51;;;;;;;;;;;;;;;15.00;48.07;100951.81;5303757;27;1316;-54
2024/04/23 10:51:16;;;;;;;;;;;;;;;14.95;47.09;100936.22;5311512;27;1378;-50
2024/04/23 10:53:42;;;;;;;;;;;;;;;14.88;46.77;100935.75;5262699;27;1356;-50
2024/04/23 10:56:08;;;;;;;;;;;;;;;15.13;47.76;100912.19;5265050;27;2776;-49
2024/04/23 10:58:38;;;;;;;;;;;;;;;15.81;48.86;100893.63;5315102;27;1588;-53
2024/04/23 11:01:03;;;;;;;;;;;;;;;15.18;49.21;100896.84;5283070;27;1121;-53
2024/04/23 11:03:30;;;;;;;;;;;;;;;15.06;48.59;100903.78;5301627;27;1197;-54
2024/04/23 11:05:55;;;;;;;;;;;;;;;14.86;47.93;100899.75;5305320;27;1294;-52
2024/04/23 11:08:21;;;;;;;;;;;;;;;14.80;47.52;100899.19;5251305;27;1134;-48
2024/04/23 11:10:50;;;;;;;;;;;;;;;15.28;48.36;100895.28;5300790;27;1291;-49
2024/04/23 11:13:26;;;;;;;;;;;;;;;15.29;48.51;100896.13;5284472;27;1379;-51
2024/04/23 11:15:54;;;;;;;;;;;;;;;14.91;48.39;100885.25;5291591;27;1872;-55
2024/04/23 11:18:20;;;;;;;;;;;;;;;16.14;48.68;100889.66;5301044;27;1810;-51
2024/04/23 11:20:46;;;;;;;;;;;;;;;15.28;49.05;100883.84;5304247;27;1227;-48
2024/04/23 11:23:12;;;;;;;;;;;;;;;15.10;48.56;100884.06;5315141;27;1129;-50
2024/04/23 11:25:37;;;;;;;;;;;;;;;14.98;47.67;100885.69;5305825;27;3012;-49
2024/04/23 11:28:04;;;;;;;;;;;;;;;16.06;48.61;100886.69;5284944;27;1196;-49
2024/04/23 11:30:29;;;;;;;;;;;;;;;15.27;48.99;100893.59;5264754;27;1451;-54
2024/04/23 11:32:56;;;;;;;;;;;;;;;15.95;49.30;100897.97;5272587;27;1399;-52
2024/04/23 11:35:24;;;;;;;;;;;;;;;15.94;49.47;100896.28;5271575;27;1874;-51
2024/04/23 11:37:59;;;;;;;;;;;;;;;15.43;49.15;100913.78;5315322;27;1168;-48
2024/04/23 11:40:24;;;;;;;;;;;;;;;15.14;48.65;100904.13;5310250;27;1546;-49
2024/04/23 11:42:50;;;;;;;;;;;;;;;15.07;47.57;100892.22;5309820;27;1397;-51
2024/04/23 11:45:15;;;;;;;;;;;;;;;14.99;47.14;100903.31;5292666;27;1125;-51
2024/04/23 11:47:41;;;;;;;;;;;;;;;15.97;48.66;100896.09;5310688;27;1414;-54
2024/04/23 11:50:07;;;;;;;;;;;;;;;15.33;48.75;100904.75;5315009;27;1128;-56
2024/04/23 11:52:32;;;;;;;;;;;;;;;15.07;48.30;100900.16;5296975;27;1244;-56
2024/04/23 11:54:58;;;;;;;;;;;;;;;15.59;48.85;100905.66;5287885;27;2333;-49
2024/04/23 11:57:23;;;;;;;;;;;;;;;15.55;49.22;100898.84;5299399;27;1310;-49
2024/04/23 11:59:49;;;;;;;;;;;;;;;15.16;48.87;100894.25;5254352;27;1228;-49
2024/04/23 12:02:14;;;;;;;;;;;;;;;15.14;47.68;100887.38;5311690;27;1216;-49
2024/04/23 12:04:40;;;;;;;;;;;;;;;14.98;47.23;100874.28;5293383;27;1452;-48
2024/04/23 12:07:06;;;;;;;;;;;;;;;14.96;46.88;100887.63;5264097;27;1836;-50
2024/04/23 12:09:32;;;;;;;;;;;;;;;15.84;48.25;100882.81;5314650;27;1296;-52
2024/04/23 12:11:58;;;;;;;;;;;;;;;15.30;48.75;100869.53;5313933;27;1282;-50
2024/04/23 12:14:30;;;;;;;;;;;;;;;14.95;48.55;100859.41;5284041;27;1231;-47
2024/04/23 12:16:55;;;;;;;;;;;;;;;16.19;48.82;100860.13;5291381;27;1359;-50
2024/04/23 12:19:21;;;;;;;;;;;;;;;15.52;48.97;100856.63;5293127;27;1306;-50
2024/04/23 12:21:47;;;;;;;;;;;;;;;15.15;48.72;100851.97;5276710;27;1411;-49
2024/04/23 12:24:15;;;;;;;;;;;;;;;15.03;47.77;100848.34;5304768;27;2699;-47
2024/04/23 12:26:40;;;;;;;;;;;;;;;15.86;48.73;100850.88;5300548;27;1541;-50
2024/04/23 12:29:06;;;;;;;;;;;;;;;15.50;48.62;100832.03;5302317;27;1288;-52
2024/04/23 12:31:32;;;;;;;;;;;;;;;15.14;48.36;100847.63;5295825;27;1441;-48
2024/04/23 12:34:01;;;;;;;;;;;;;;;15.08;47.85;100837.44;5297673;27;1521;-51
2024/04/23 12:36:26;;;;;;;;;;;;;;;14.94;47.18;100852.44;5305956;27;1849;-53
2024/04/23 12:38:52;;;;;;;;;;;;;;;15.78;48.18;100854.88;5292233;27;1152;-48
2024/04/23 12:41:18;;;;;;;;;;;;;;;15.87;48.96;100857.84;5314210;27;1503;-51
2024/04/23 12:43:44;;;;;;;;;;;;;;;17.36;48.45;100857.19;5291568;27;1283;-52
2024/04/23 12:46:10;;;;;;;;;;;;;;;16.23;50.26;100842.19;5314258;27;1244;-50
2024/04/23 12:48:35;;;;;;;;;;;;;;;15.74;49.86;100831.31;5304048;27;1577;-53
2024/04/23 12:51:01;;;;;;;;;;;;;;;15.52;48.97;100806.25;5277924;27;1212;-51